createdAt,value
2022-08-03T00:01:05.216Z,19.49
2022-08-03T00:04:33.662Z,19.49
2022-08-03T00:07:55.883Z,19.50
2022-08-03T00:11:17.664Z,19.48
2022-08-03T00:14:39.983Z,19.48
2022-08-03T00:18:03.001Z,19.48
2022-08-03T00:21:24.753Z,19.47
2022-08-03T00:24:46.426Z,19.44
2022-08-03T00:28:08.890Z,19.44
2022-08-03T00:31:52.125Z,19.45
2022-08-03T00:35:32.581Z,19.45
2022-08-03T00:38:55.594Z,19.43
2022-08-03T00:42:17.774Z,19.43
2022-08-03T00:45:41.711Z,19.41
2022-08-03T00:49:03.625Z,19.40
2022-08-03T00:52:26.360Z,19.38
2022-08-03T00:55:48.165Z,19.40
2022-08-03T00:59:11.395Z,19.38
2022-08-03T01:02:35.740Z,19.40
2022-08-03T01:06:05.889Z,19.38
2022-08-03T01:09:41.140Z,19.37
2022-08-03T01:13:59.919Z,19.36
2022-08-03T01:16:58.253Z,19.36
2022-08-03T01:20:23.374Z,19.37
2022-08-03T01:24:09.665Z,19.36
2022-08-03T01:27:44.549Z,19.38
2022-08-03T01:31:09.885Z,19.38
2022-08-03T01:34:37.820Z,19.37
2022-08-03T01:38:04.443Z,19.38
2022-08-03T01:41:31.893Z,19.37
2022-08-03T01:44:54.333Z,19.38
2022-08-03T01:48:18.953Z,19.38
2022-08-03T01:51:56.713Z,19.38
2022-08-03T01:55:28.213Z,19.40
2022-08-03T01:58:52.188Z,19.41
2022-08-03T02:02:32.868Z,19.41
2022-08-03T02:07:00.487Z,19.41
2022-08-03T02:09:43.988Z,19.42
2022-08-03T02:13:08.319Z,19.44
2022-08-03T02:16:32.177Z,19.46
2022-08-03T02:19:55.071Z,19.45
2022-08-03T02:23:18.490Z,19.45
2022-08-03T02:26:42.781Z,19.44
2022-08-03T02:30:08.620Z,19.44
2022-08-03T02:33:34.023Z,19.43
2022-08-03T02:37:00.249Z,19.41
2022-08-03T02:40:25.473Z,19.40
2022-08-03T02:43:59.820Z,19.41
2022-08-03T02:47:53.903Z,19.40
2022-08-03T02:51:12.492Z,19.38
2022-08-03T02:54:36.098Z,19.35
2022-08-03T02:58:01.527Z,19.33
2022-08-03T03:01:24.186Z,19.30
2022-08-03T03:05:52.634Z,19.26
2022-08-03T03:08:29.312Z,19.21
2022-08-03T03:11:53.337Z,19.17
2022-08-03T03:15:16.454Z,19.14
2022-08-03T03:18:39.384Z,19.10
2022-08-03T03:22:02.424Z,19.07
2022-08-03T03:25:25.388Z,19.02
2022-08-03T03:28:47.134Z,18.97
2022-08-03T03:32:10.237Z,18.90
2022-08-03T03:35:38.948Z,18.85
2022-08-03T03:39:15.522Z,18.78
2022-08-03T03:42:38.347Z,18.71
2022-08-03T03:46:00.411Z,18.66
2022-08-03T03:49:24.055Z,18.63
2022-08-03T03:52:45.659Z,18.59
2022-08-03T03:56:07.062Z,18.56
2022-08-03T03:59:28.346Z,18.52
2022-08-03T04:02:50.412Z,18.46
2022-08-03T04:06:43.745Z,18.40
2022-08-03T04:10:26.771Z,18.35
2022-08-03T04:13:52.706Z,18.34
2022-08-03T04:17:16.711Z,18.32
2022-08-03T04:20:41.786Z,18.30
2022-08-03T04:24:08.344Z,18.28
2022-08-03T04:27:34.405Z,18.27
2022-08-03T04:30:57.915Z,18.28
2022-08-03T04:34:19.701Z,18.29
2022-08-03T04:37:44.151Z,18.28
2022-08-03T04:41:08.753Z,18.30
2022-08-03T04:44:35.167Z,18.33
2022-08-03T04:47:57.308Z,18.35
2022-08-03T04:51:19.069Z,18.36
2022-08-03T04:54:41.706Z,18.40
2022-08-03T04:58:06.365Z,18.40
2022-08-03T05:01:28.178Z,18.44
2022-08-03T05:04:50.825Z,18.45
2022-08-03T05:08:12.267Z,18.49
2022-08-03T05:11:34.226Z,18.54
2022-08-03T05:14:57.368Z,18.60
2022-08-03T05:18:19.198Z,18.68
2022-08-03T05:21:51.156Z,18.76
2022-08-03T05:25:17.763Z,18.85
2022-08-03T05:28:49.986Z,18.92
2022-08-03T05:32:14.464Z,19.02
2022-08-03T05:35:57.187Z,19.10
2022-08-03T05:39:17.746Z,19.20
2022-08-03T05:42:39.607Z,19.28
2022-08-03T05:46:12.864Z,19.34
2022-08-03T05:49:36.717Z,19.41
2022-08-03T05:52:58.801Z,19.46
2022-08-03T05:56:24.766Z,19.53
2022-08-03T05:59:56.417Z,19.61
2022-08-03T06:03:20.442Z,19.70
2022-08-03T06:06:45.188Z,19.78
2022-08-03T06:10:37.132Z,19.88
2022-08-03T06:13:50.552Z,20.00
2022-08-03T06:17:12.877Z,20.08
2022-08-03T06:20:37.125Z,20.18
2022-08-03T06:24:00.886Z,20.27
2022-08-03T06:27:36.589Z,20.35
2022-08-03T06:30:58.978Z,20.48
2022-08-03T06:34:34.262Z,20.57
2022-08-03T06:37:57.196Z,20.69
2022-08-03T06:41:20.429Z,20.82
2022-08-03T06:44:41.889Z,20.93
2022-08-03T06:48:05.810Z,21.04
2022-08-03T06:52:05.891Z,21.18
2022-08-03T06:55:09.188Z,21.32
2022-08-03T06:58:32.544Z,21.45
2022-08-03T07:01:54.105Z,21.61
2022-08-03T07:05:16.230Z,21.73
2022-08-03T07:08:38.714Z,21.91
2022-08-03T07:12:02.320Z,22.04
2022-08-03T07:15:54.047Z,22.21
2022-08-03T07:19:07.405Z,22.36
2022-08-03T07:22:28.941Z,22.53
2022-08-03T07:25:51.086Z,22.65
2022-08-03T07:29:15.211Z,22.81
2022-08-03T07:32:50.265Z,22.99
2022-08-03T07:36:12.347Z,23.17
2022-08-03T07:39:34.381Z,23.32
2022-08-03T07:42:56.265Z,23.52
2022-08-03T07:46:18.279Z,23.67
2022-08-03T07:49:42.466Z,23.87
2022-08-03T07:53:04.222Z,24.05
2022-08-03T07:56:26.126Z,24.20
2022-08-03T07:59:56.582Z,24.36
2022-08-03T08:03:23.236Z,24.53
2022-08-03T08:06:46.867Z,24.64
2022-08-03T08:10:10.951Z,24.78
2022-08-03T08:13:32.819Z,24.91
2022-08-03T08:16:54.930Z,25.05
2022-08-03T08:20:25.245Z,25.18
2022-08-03T08:23:56.946Z,25.32
2022-08-03T08:27:19.919Z,25.49
2022-08-03T08:30:41.710Z,25.65
2022-08-03T08:34:05.690Z,25.82
2022-08-03T08:37:27.346Z,25.93
2022-08-03T08:40:50.866Z,26.08
2022-08-03T08:44:12.430Z,26.14
2022-08-03T08:47:51.044Z,26.25
2022-08-03T08:51:14.156Z,26.30
2022-08-03T08:54:40.981Z,26.42
2022-08-03T08:58:07.966Z,26.55
2022-08-03T09:01:29.874Z,26.69
2022-08-03T09:04:52.230Z,26.83
2022-08-03T09:08:14.417Z,26.97
2022-08-03T09:12:00.961Z,27.09
2022-08-03T09:15:24.622Z,27.15
2022-08-03T09:18:49.083Z,27.28
2022-08-03T09:22:13.045Z,27.29
2022-08-03T09:25:36.479Z,27.36
2022-08-03T09:29:04.132Z,27.41
2022-08-03T09:32:30.153Z,27.40
2022-08-03T09:35:53.906Z,27.43
2022-08-03T09:39:19.712Z,27.47
2022-08-03T09:43:00.093Z,27.59
2022-08-03T09:46:21.917Z,27.67
2022-08-03T09:49:58.888Z,27.73
2022-08-03T09:53:21.154Z,27.76
2022-08-03T09:56:44.702Z,27.81
2022-08-03T10:00:10.467Z,27.92
2022-08-03T10:04:04.099Z,28.06
2022-08-03T10:07:20.603Z,28.12
2022-08-03T10:10:44.272Z,28.19
2022-08-03T10:14:06.649Z,28.28
2022-08-03T10:17:28.511Z,28.41
2022-08-03T10:20:54.132Z,28.50
2022-08-03T10:24:21.288Z,28.58
2022-08-03T10:27:48.657Z,28.68
2022-08-03T10:31:12.446Z,28.77
2022-08-03T10:34:37.118Z,28.87
2022-08-03T10:38:03.104Z,28.85
2022-08-03T10:41:32.991Z,28.80
2022-08-03T10:45:04.759Z,28.85
2022-08-03T10:48:27.641Z,28.92
2022-08-03T10:51:54.318Z,28.99
2022-08-03T10:55:50.193Z,29.09
2022-08-03T10:59:22.955Z,29.23
2022-08-03T11:03:17.666Z,29.29
2022-08-03T11:06:39.420Z,29.31
2022-08-03T11:10:00.731Z,29.37
2022-08-03T11:13:24.472Z,29.43
2022-08-03T11:16:49.786Z,29.51
2022-08-03T11:20:11.986Z,29.59
2022-08-03T11:24:05.073Z,29.63
2022-08-03T11:27:32.261Z,29.67
2022-08-03T11:30:53.838Z,29.75
2022-08-03T11:34:17.691Z,29.78
2022-08-03T11:38:07.163Z,29.83
2022-08-03T11:41:44.872Z,29.90
2022-08-03T11:45:10.407Z,29.97
2022-08-03T11:48:36.484Z,29.97
2022-08-03T11:51:59.612Z,29.95
2022-08-03T11:55:22.041Z,30.01
2022-08-03T11:59:00.955Z,30.03
2022-08-03T12:02:35.018Z,30.10
2022-08-03T12:05:56.883Z,30.16
2022-08-03T12:09:21.287Z,30.24
2022-08-03T12:12:46.689Z,30.31
2022-08-03T12:16:09.322Z,30.35
2022-08-03T12:19:43.170Z,30.37
2022-08-03T12:23:06.887Z,30.39
2022-08-03T12:26:31.787Z,30.32
2022-08-03T12:29:57.233Z,30.23
2022-08-03T12:33:22.880Z,30.15
2022-08-03T12:36:52.332Z,30.10
2022-08-03T12:40:20.564Z,30.14
2022-08-03T12:43:50.673Z,30.25
2022-08-03T12:47:12.809Z,30.40
2022-08-03T12:50:36.959Z,30.40
2022-08-03T12:53:59.627Z,30.44
2022-08-03T12:57:21.609Z,30.44
2022-08-03T13:00:56.442Z,30.53
2022-08-03T13:04:27.521Z,30.50
2022-08-03T13:07:51.050Z,30.57
2022-08-03T13:11:53.618Z,30.65
2022-08-03T13:15:06.551Z,30.77
2022-08-03T13:18:30.146Z,30.85
2022-08-03T13:22:03.228Z,30.93
2022-08-03T13:25:26.584Z,31.03
2022-08-03T13:28:48.349Z,31.12
2022-08-03T13:32:11.232Z,31.18
2022-08-03T13:35:34.341Z,31.19
2022-08-03T13:38:56.136Z,31.22
2022-08-03T13:42:17.948Z,31.23
2022-08-03T13:45:39.963Z,31.22
2022-08-03T13:49:01.581Z,31.14
2022-08-03T13:52:24.977Z,31.16
2022-08-03T13:55:46.766Z,31.25
2022-08-03T13:59:08.610Z,31.13
2022-08-03T14:02:30.617Z,31.15
2022-08-03T14:05:52.165Z,31.23
2022-08-03T14:09:16.603Z,31.32
2022-08-03T14:12:38.316Z,31.37
2022-08-03T14:16:00.127Z,31.52
2022-08-03T14:19:25.562Z,31.60
2022-08-03T14:22:47.031Z,31.73
2022-08-03T14:26:11.980Z,31.74
2022-08-03T14:29:33.701Z,31.73
2022-08-03T14:33:00.432Z,31.75
2022-08-03T14:36:22.375Z,31.83
2022-08-03T14:40:00.121Z,31.89
2022-08-03T14:43:23.596Z,31.96
2022-08-03T14:46:45.011Z,32.08
2022-08-03T14:50:38.499Z,32.17
2022-08-03T14:53:49.583Z,32.25
2022-08-03T14:57:11.222Z,32.36
2022-08-03T15:00:34.642Z,32.40
2022-08-03T15:03:56.494Z,32.47
2022-08-03T15:07:18.145Z,32.56
2022-08-03T15:10:43.731Z,32.64
2022-08-03T15:14:09.335Z,32.71
2022-08-03T15:17:32.973Z,32.83
2022-08-03T15:20:54.623Z,32.97
2022-08-03T15:24:16.415Z,33.09
2022-08-03T15:27:38.065Z,33.25
2022-08-03T15:31:22.490Z,33.28
2022-08-03T15:34:50.553Z,33.38
2022-08-03T15:38:12.400Z,33.52
2022-08-03T15:41:34.267Z,33.63
2022-08-03T15:44:56.187Z,33.71
2022-08-03T15:48:20.072Z,33.76
2022-08-03T15:51:49.474Z,33.82
2022-08-03T15:55:15.507Z,33.89
2022-08-03T15:58:59.634Z,33.97
2022-08-03T16:02:21.354Z,34.08
2022-08-03T16:05:42.978Z,34.17
2022-08-03T16:09:24.026Z,34.29
2022-08-03T16:12:50.080Z,34.39
2022-08-03T16:16:11.581Z,34.42
2022-08-03T16:19:33.611Z,34.44
2022-08-03T16:22:55.379Z,34.43
2022-08-03T16:26:19.189Z,34.33
2022-08-03T16:29:41.119Z,34.32
2022-08-03T16:33:03.034Z,34.42
2022-08-03T16:36:24.593Z,34.49
2022-08-03T16:39:46.398Z,34.53
2022-08-03T16:43:18.213Z,34.52
2022-08-03T16:46:42.902Z,34.59
2022-08-03T16:50:11.897Z,34.69
2022-08-03T16:54:07.437Z,34.80
2022-08-03T16:57:29.769Z,34.89
2022-08-03T17:01:01.757Z,34.96
2022-08-03T17:04:42.773Z,34.89
2022-08-03T17:08:10.609Z,34.77
2022-08-03T17:11:34.853Z,34.61
2022-08-03T17:14:58.619Z,34.45
2022-08-03T17:18:26.016Z,34.28
2022-08-03T17:21:56.995Z,34.06
2022-08-03T17:25:21.983Z,33.90
2022-08-03T17:29:12.784Z,33.72
2022-08-03T17:32:42.717Z,33.52
2022-08-03T17:36:20.511Z,33.33
2022-08-03T17:39:59.907Z,33.16
2022-08-03T17:44:13.083Z,32.95
2022-08-03T17:47:04.747Z,32.75
2022-08-03T17:50:38.041Z,32.58
2022-08-03T17:54:18.192Z,32.44
2022-08-03T17:58:02.025Z,32.36
2022-08-03T18:02:03.696Z,32.14
2022-08-03T18:06:11.822Z,31.88
2022-08-03T18:10:05.183Z,31.65
2022-08-03T18:12:59.159Z,31.41
2022-08-03T18:16:25.662Z,31.19
2022-08-03T18:20:03.367Z,30.98
2022-08-03T18:23:36.578Z,30.78
2022-08-03T18:30:53.583Z,30.36
2022-08-03T18:34:32.895Z,30.13
2022-08-03T18:37:57.459Z,29.94
2022-08-03T18:41:33.334Z,29.74
2022-08-03T18:44:57.265Z,29.56
2022-08-03T18:48:28.038Z,29.35
2022-08-03T18:51:55.894Z,29.15
2022-08-03T18:55:33.490Z,28.97
2022-08-03T18:59:02.404Z,28.78
2022-08-03T19:02:34.430Z,28.61
2022-08-03T19:06:04.430Z,28.47
2022-08-03T19:09:49.594Z,28.29
2022-08-03T19:13:20.658Z,28.18
2022-08-03T19:17:05.761Z,28.06
2022-08-03T19:20:31.447Z,27.93
2022-08-03T19:23:55.489Z,27.80
2022-08-03T19:27:17.497Z,27.68
2022-08-03T19:30:53.236Z,27.54
2022-08-03T19:34:17.642Z,27.40
2022-08-03T19:37:42.399Z,27.26
2022-08-03T19:41:05.711Z,27.16
2022-08-03T19:44:32.297Z,27.04
2022-08-03T19:48:09.844Z,26.91
2022-08-03T19:52:02.345Z,26.78
2022-08-03T19:55:18.841Z,26.65
2022-08-03T19:58:43.369Z,26.55
2022-08-03T20:02:06.532Z,26.46
2022-08-03T20:05:29.634Z,26.36
2022-08-03T20:09:07.358Z,26.25
2022-08-03T20:12:38.563Z,26.14
2022-08-03T20:16:01.571Z,26.05
2022-08-03T20:19:23.616Z,25.97
2022-08-03T20:22:52.784Z,25.89
2022-08-03T20:26:17.977Z,25.77
2022-08-03T20:30:07.198Z,25.71
2022-08-03T20:33:46.562Z,25.65
2022-08-03T20:37:12.088Z,25.56
2022-08-03T20:40:33.843Z,25.50
2022-08-03T20:43:56.018Z,25.40
2022-08-03T20:47:23.981Z,25.32
2022-08-03T20:50:46.485Z,25.23
2022-08-03T20:54:22.878Z,25.16
2022-08-03T21:01:36.361Z,24.98
2022-08-03T21:05:03.758Z,24.91
2022-08-03T21:08:30.498Z,24.83
2022-08-03T21:11:53.618Z,24.74
2022-08-03T21:12:58.033Z,30.58
2022-08-03T21:13:14.056Z,25.08
2022-08-03T21:16:02.256Z,24.65
2022-08-03T21:19:00.872Z,24.60
2022-08-03T21:22:27.023Z,24.54
2022-08-03T21:25:50.696Z,24.52
2022-08-03T21:29:14.170Z,24.46
2022-08-03T21:32:40.153Z,24.41
2022-08-03T21:36:03.428Z,24.33
2022-08-03T21:39:26.945Z,24.26
2022-08-03T21:42:48.770Z,24.20
2022-08-03T21:46:12.936Z,24.11
2022-08-03T21:50:05.505Z,24.03
2022-08-03T21:53:19.875Z,23.94
2022-08-03T21:56:44.444Z,23.86
2022-08-03T22:00:09.596Z,23.80
2022-08-03T22:03:53.232Z,23.77
2022-08-03T22:07:16.805Z,23.74
2022-08-03T22:10:38.359Z,23.69
2022-08-03T22:14:03.372Z,23.62
2022-08-03T22:17:55.936Z,23.54
2022-08-03T22:21:08.710Z,23.46
2022-08-03T22:24:32.945Z,23.36
2022-08-03T22:27:55.836Z,23.30
2022-08-03T22:31:30.756Z,23.22
2022-08-03T22:35:05.118Z,23.15
2022-08-03T22:38:28.050Z,23.08
2022-08-03T22:41:50.294Z,23.02
2022-08-03T22:45:12.638Z,22.98
2022-08-03T22:48:56.583Z,22.92
2022-08-03T22:52:18.956Z,22.88
2022-08-03T22:55:40.703Z,22.86
2022-08-03T22:59:02.426Z,22.82
2022-08-03T23:02:45.979Z,22.76
2022-08-03T23:06:10.865Z,22.73
2022-08-03T23:09:33.634Z,22.68
2022-08-03T23:12:56.603Z,22.66
2022-08-03T23:16:29.046Z,22.64
2022-08-03T23:19:52.546Z,22.62
2022-08-03T23:23:19.795Z,22.59
2022-08-03T23:26:43.766Z,22.57
2022-08-03T23:30:06.885Z,22.58
2022-08-03T23:33:30.454Z,22.57
2022-08-03T23:36:51.451Z,22.56
2022-08-03T23:40:15.152Z,22.55
2022-08-03T23:43:50.679Z,22.54
2022-08-03T23:47:13.434Z,22.52
2022-08-03T23:50:44.873Z,22.50
2022-08-03T23:54:15.681Z,22.44
2022-08-03T23:57:59.399Z,22.38
